Time;durP1;ratioP1;P1;durP2;ratioP2;P2;SDS_P1;SDS_P2;PMS_P1;PMS_P2;Temp;Humidity;BMP_temperature;BMP_pressure;BME280_temperature;BME280_humidity;BME280_pressure;Samples;Min_cycle;Max_cycle;Signal;HPM_P1;HPM_P2
2022/08/01 00:03:00;;;;;;;10.88;8.25;;;;;;;;;;10239756;23;20013;-80
2022/08/01 00:07:03;;;;;;;12.95;9.05;;;;;;;;;;10239855;23;20438;-80
2022/08/01 00:11:06;;;;;;;12.60;9.00;;;;;;;;;;10239375;23;20021;-80
2022/08/01 00:15:13;;;;;;;14.05;8.55;;;;;;;;;;10238353;23;20315;-80
2022/08/01 00:19:15;;;;;;;14.48;9.88;;;;;;;;;;10254680;23;20097;-81
2022/08/01 00:23:18;;;;;;;20.98;10.90;;;;;;;;;;10238417;23;20416;-83
2022/08/01 00:27:21;;;;;;;14.15;10.73;;;;;;;;;;10238787;23;20017;-85
2022/08/01 00:31:25;;;;;;;13.70;9.93;;;;;;;;;;10238620;23;20017;-80
2022/08/01 00:35:28;;;;;;;15.38;9.82;;;;;;;;;;10236690;23;20404;-80
2022/08/01 00:39:32;;;;;;;14.43;10.18;;;;;;;;;;10238274;23;20446;-94
2022/08/01 00:43:34;;;;;;;15.00;10.43;;;;;;;;;;10238102;23;20025;-80
2022/08/01 00:47:39;;;;;;;19.02;11.43;;;;;;;;;;10237740;23;20013;-80
2022/08/01 00:51:41;;;;;;;19.60;11.70;;;;;;;;;;10238402;23;20028;-81
2022/08/01 00:55:44;;;;;;;15.23;11.07;;;;;;;;;;10236713;23;20024;-80
2022/08/01 00:59:47;;;;;;;14.65;10.13;;;;;;;;;;10237631;23;20441;-81
2022/08/01 01:03:53;;;;;;;15.13;10.18;;;;;;;;;;10237444;23;20021;-81
2022/08/01 01:08:00;;;;;;;14.45;10.13;;;;;;;;;;10238245;23;20042;-80
2022/08/01 01:12:14;;;;;;;19.17;10.55;;;;;;;;;;10254423;23;20028;-80
2022/08/01 01:16:19;;;;;;;11.30;7.95;;;;;;;;;;10254484;23;20013;-82
2022/08/01 01:20:28;;;;;;;17.17;9.18;;;;;;;;;;10237597;23;20084;-80
2022/08/01 01:24:41;;;;;;;13.27;8.95;;;;;;;;;;10238126;23;20013;-81
2022/08/01 01:29:10;;;;;;;10.35;7.68;;;;;;;;;;10253661;23;20020;-80
2022/08/01 01:33:15;;;;;;;13.70;7.40;;;;;;;;;;10234383;23;20025;-81
2022/08/01 01:37:20;;;;;;;10.90;6.28;;;;;;;;;;10237987;23;20021;-80
2022/08/01 01:41:24;;;;;;;14.63;8.05;;;;;;;;;;10238446;23;20017;-82
2022/08/01 01:45:30;;;;;;;13.55;8.40;;;;;;;;;;10238617;23;20013;-81
2022/08/01 01:49:34;;;;;;;13.82;9.52;;;;;;;;;;10238661;23;20017;-81
2022/08/01 01:53:37;;;;;;;12.35;9.13;;;;;;;;;;10237866;23;20017;-81
2022/08/01 01:57:42;;;;;;;15.18;11.25;;;;;;;;;;10237658;23;20025;-80
2022/08/01 02:01:49;;;;;;;14.27;9.55;;;;;;;;;;10238578;23;20064;-81
2022/08/01 02:05:55;;;;;;;18.38;12.00;;;;;;;;;;10254529;23;20024;-81
2022/08/01 02:09:59;;;;;;;18.88;12.25;;;;;;;;;;10237904;23;20021;-80
2022/08/01 02:14:03;;;;;;;20.83;9.32;;;;;;;;;;10238421;23;20338;-80
2022/08/01 02:18:11;;;;;;;18.13;10.85;;;;;;;;;;10237630;23;20025;-80
2022/08/01 02:22:21;;;;;;;22.63;11.27;;;;;;;;;;10238532;23;20048;-80
2022/08/01 02:26:25;;;;;;;18.23;11.35;;;;;;;;;;10238471;23;20468;-81
2022/08/01 02:30:33;;;;;;;24.63;11.75;;;;;;;;;;10238041;23;20047;-81
2022/08/01 02:34:39;;;;;;;19.98;10.77;;;;;;;;;;10239061;23;20017;-80
2022/08/01 02:38:44;;;;;;;18.67;10.63;;;;;;;;;;10241031;23;20084;-81
2022/08/01 02:42:50;;;;;;;21.88;11.40;;;;;;;;;;10240994;23;20079;-80
2022/08/01 02:46:57;;;;;;;28.08;14.93;;;;;;;;;;10257686;23;20024;-80
2022/08/01 02:51:03;;;;;;;21.23;13.00;;;;;;;;;;10240782;23;20013;-80
2022/08/01 02:55:07;;;;;;;20.08;12.38;;;;;;;;;;10254533;23;20029;-80
2022/08/01 02:59:15;;;;;;;17.73;12.05;;;;;;;;;;10240727;23;20021;-80
2022/08/01 03:03:18;;;;;;;19.30;12.90;;;;;;;;;;10240596;23;20017;-80
2022/08/01 03:07:23;;;;;;;17.50;11.93;;;;;;;;;;10241100;23;20017;-80
2022/08/01 03:11:29;;;;;;;23.17;13.00;;;;;;;;;;10241119;23;20389;-81
2022/08/01 03:15:34;;;;;;;19.27;12.88;;;;;;;;;;10241069;23;20013;-80
2022/08/01 03:19:39;;;;;;;28.63;15.88;;;;;;;;;;10240365;23;20017;-81
2022/08/01 03:23:46;;;;;;;33.38;15.70;;;;;;;;;;10240885;23;20025;-80
2022/08/01 03:27:55;;;;;;;31.67;15.38;;;;;;;;;;10240755;23;20489;-80
2022/08/01 03:31:59;;;;;;;31.92;17.38;;;;;;;;;;10240951;23;20144;-80
2022/08/01 03:36:04;;;;;;;23.75;14.38;;;;;;;;;;10240737;23;20013;-80
2022/08/01 03:40:14;;;;;;;28.88;13.85;;;;;;;;;;10240574;23;20040;-80
2022/08/01 03:44:23;;;;;;;19.70;12.10;;;;;;;;;;10256744;23;20059;-81
2022/08/01 03:48:33;;;;;;;17.00;8.38;;;;;;;;;;10240132;23;20431;-80
2022/08/01 03:52:40;;;;;;;25.45;14.40;;;;;;;;;;10256476;23;20029;-81
2022/08/01 03:56:46;;;;;;;22.02;14.27;;;;;;;;;;10239649;23;20024;-80
2022/08/01 04:00:49;;;;;;;22.55;13.48;;;;;;;;;;10240276;23;20017;-81
2022/08/01 04:04:53;;;;;;;21.42;12.43;;;;;;;;;;10240277;23;20020;-81
2022/08/01 04:08:58;;;;;;;16.15;10.88;;;;;;;;;;10240212;23;20358;-80
2022/08/01 04:13:02;;;;;;;14.32;8.52;;;;;;;;;;10256218;23;20021;-80
2022/08/01 04:17:05;;;;;;;16.35;10.02;;;;;;;;;;10240005;23;20474;-81
2022/08/01 04:21:08;;;;;;;20.33;10.63;;;;;;;;;;10239878;23;20088;-80
2022/08/01 04:25:15;;;;;;;20.35;11.20;;;;;;;;;;10239555;23;20021;-80
2022/08/01 04:29:21;;;;;;;22.70;12.23;;;;;;;;;;10239400;23;20013;-81
2022/08/01 04:33:25;;;;;;;19.52;11.80;;;;;;;;;;10239456;23;20017;-84
2022/08/01 04:37:30;;;;;;;15.68;9.32;;;;;;;;;;10238956;23;20027;-81
2022/08/01 04:41:33;;;;;;;16.85;11.80;;;;;;;;;;10239342;23;20088;-81
2022/08/01 04:45:43;;;;;;;20.27;12.25;;;;;;;;;;10225876;23;20345;-81
2022/08/01 04:49:47;;;;;;;27.77;14.80;;;;;;;;;;10238305;23;20096;-82
2022/08/01 04:53:56;;;;;;;21.30;11.90;;;;;;;;;;10238865;23;20515;-83
2022/08/01 04:58:01;;;;;;;27.70;14.07;;;;;;;;;;10238530;23;20033;-81
2022/08/01 05:02:11;;;;;;;27.67;14.48;;;;;;;;;;10238533;23;20037;-80
2022/08/01 05:06:13;;;;;;;31.17;16.08;;;;;;;;;;10250188;23;20091;-81
2022/08/01 05:10:16;;;;;;;24.55;13.77;;;;;;;;;;10237105;23;20389;-82
2022/08/01 05:14:19;;;;;;;34.53;17.45;;;;;;;;;;10239218;23;20009;-80
2022/08/01 05:18:24;;;;;;;30.95;15.70;;;;;;;;;;10211904;23;20078;-80
2022/08/01 05:22:27;;;;;;;27.15;14.32;;;;;;;;;;10238940;23;20147;-80
2022/08/01 05:26:30;;;;;;;27.83;12.98;;;;;;;;;;10238431;23;20019;-80
2022/08/01 05:30:34;;;;;;;25.65;14.18;;;;;;;;;;10238287;23;20021;-81
2022/08/01 05:34:39;;;;;;;23.48;14.05;;;;;;;;;;10238255;23;20013;-80
2022/08/01 05:38:42;;;;;;;24.15;13.95;;;;;;;;;;10238061;23;20354;-80
2022/08/01 05:42:45;;;;;;;31.95;14.90;;;;;;;;;;10238184;23;20091;-85
2022/08/01 05:46:48;;;;;;;27.15;13.88;;;;;;;;;;10237676;23;20017;-85
2022/08/01 05:50:54;;;;;;;27.50;13.45;;;;;;;;;;10236443;23;20017;-82
2022/08/01 05:54:57;;;;;;;32.10;15.55;;;;;;;;;;10237953;23;20025;-80
2022/08/01 05:59:01;;;;;;;33.00;15.32;;;;;;;;;;10237974;23;20341;-80
2022/08/01 06:03:04;;;;;;;23.67;13.63;;;;;;;;;;10238201;23;20028;-80
2022/08/01 06:07:10;;;;;;;23.23;12.25;;;;;;;;;;10237788;23;20036;-80
2022/08/01 06:11:13;;;;;;;23.55;13.07;;;;;;;;;;10237804;23;20017;-80
2022/08/01 06:15:17;;;;;;;18.70;12.02;;;;;;;;;;10237941;23;20021;-80
2022/08/01 06:19:21;;;;;;;17.73;10.82;;;;;;;;;;10238430;23;20017;-80
2022/08/01 06:23:27;;;;;;;13.77;8.55;;;;;;;;;;10238229;23;20338;-82
2022/08/01 06:27:31;;;;;;;14.02;8.02;;;;;;;;;;10239050;23;20047;-80
2022/08/01 06:31:34;;;;;;;12.07;7.78;;;;;;;;;;10239061;23;20036;-80
2022/08/01 06:35:37;;;;;;;11.98;7.88;;;;;;;;;;10238292;23;20430;-80
2022/08/01 06:39:49;;;;;;;12.35;7.72;;;;;;;;;;10227013;23;20044;-80
2022/08/01 06:44:02;;;;;;;10.63;7.43;;;;;;;;;;10236541;23;20013;-87
2022/08/01 06:48:07;;;;;;;11.80;7.00;;;;;;;;;;10239598;23;20445;-80
2022/08/01 06:52:10;;;;;;;11.05;7.07;;;;;;;;;;10234433;23;20017;-80
2022/08/01 06:56:18;;;;;;;9.90;7.00;;;;;;;;;;10231412;23;20064;-81
2022/08/01 07:00:25;;;;;;;10.38;7.53;;;;;;;;;;10231337;23;20047;-80
2022/08/01 07:04:42;;;;;;;8.60;6.35;;;;;;;;;;10233490;23;20021;-80
2022/08/01 07:08:47;;;;;;;10.70;6.93;;;;;;;;;;10231798;23;20112;-80
2022/08/01 07:12:55;;;;;;;9.65;7.43;;;;;;;;;;10234247;23;20024;-85
2022/08/01 07:17:11;;;;;;;9.18;6.47;;;;;;;;;;10242309;23;20017;-84
2022/08/01 07:21:38;;;;;;;9.40;6.30;;;;;;;;;;10249915;23;20021;-80
2022/08/01 07:25:56;;;;;;;8.80;5.55;;;;;;;;;;10253972;23;20047;-80
2022/08/01 07:30:02;;;;;;;10.00;7.07;;;;;;;;;;10251928;23;20399;-80
2022/08/01 07:34:07;;;;;;;9.10;6.60;;;;;;;;;;10243360;23;20450;-82
2022/08/01 07:38:11;;;;;;;8.73;5.80;;;;;;;;;;10252813;23;20025;-80
2022/08/01 07:42:14;;;;;;;8.27;5.38;;;;;;;;;;10249400;23;20330;-88
2022/08/01 07:46:22;;;;;;;7.45;5.22;;;;;;;;;;10247691;23;20055;-88
2022/08/01 07:50:27;;;;;;;8.18;5.05;;;;;;;;;;10241423;23;20028;-87
2022/08/01 07:54:34;;;;;;;8.07;5.47;;;;;;;;;;10241660;23;20021;-85
2022/08/01 07:58:37;;;;;;;6.75;4.57;;;;;;;;;;10245054;23;20028;-82
2022/08/01 08:02:44;;;;;;;6.78;5.40;;;;;;;;;;10239595;23;20092;-84
2022/08/01 08:06:50;;;;;;;6.57;4.13;;;;;;;;;;10238139;23;20088;-85
2022/08/01 08:10:57;;;;;;;9.48;5.18;;;;;;;;;;10235951;23;20039;-89
2022/08/01 08:15:05;;;;;;;7.88;4.70;;;;;;;;;;10210726;23;20078;-88
2022/08/01 08:19:12;;;;;;;5.70;4.55;;;;;;;;;;10252583;23;20350;-86
2022/08/01 08:27:32;;;;;;;5.88;4.10;;;;;;;;;;10152544;23;20013;-80
2022/08/01 08:31:35;;;;;;;6.75;4.50;;;;;;;;;;10233342;23;20024;-80
2022/08/01 08:35:42;;;;;;;6.47;4.45;;;;;;;;;;10232777;23;20457;-80
2022/08/01 08:39:45;;;;;;;6.97;4.65;;;;;;;;;;10233167;23;20024;-80
2022/08/01 08:43:50;;;;;;;6.15;4.20;;;;;;;;;;10232952;23;20021;-80
2022/08/01 08:47:55;;;;;;;8.60;4.50;;;;;;;;;;10232864;23;20024;-80
2022/08/01 08:52:05;;;;;;;11.40;5.47;;;;;;;;;;10232630;23;20079;-80
2022/08/01 08:56:10;;;;;;;7.38;4.20;;;;;;;;;;10232753;23;20480;-80
2022/08/01 09:00:16;;;;;;;10.90;4.45;;;;;;;;;;10232896;23;20427;-80
2022/08/01 09:04:19;;;;;;;11.52;4.10;;;;;;;;;;10232318;23;20020;-80
2022/08/01 09:08:25;;;;;;;10.50;3.88;;;;;;;;;;10232907;23;20017;-80
2022/08/01 09:12:32;;;;;;;14.18;5.35;;;;;;;;;;10249288;23;20025;-80
2022/08/01 09:16:39;;;;;;;7.05;4.13;;;;;;;;;;10249003;23;20025;-80
2022/08/01 09:20:44;;;;;;;13.00;4.32;;;;;;;;;;10232236;23;20028;-80
2022/08/01 09:25:02;;;;;;;10.45;4.38;;;;;;;;;;10232104;23;20021;-81
2022/08/01 09:29:08;;;;;;;9.43;3.72;;;;;;;;;;10232349;23;20075;-81
2022/08/01 09:33:12;;;;;;;5.00;3.30;;;;;;;;;;10232464;23;20048;-80
2022/08/01 09:37:17;;;;;;;7.47;3.67;;;;;;;;;;10205723;23;20021;-81
2022/08/01 09:41:32;;;;;;;5.35;2.70;;;;;;;;;;10232930;23;20028;-88
2022/08/01 09:45:36;;;;;;;3.80;2.58;;;;;;;;;;10249630;23;20044;-83
2022/08/01 09:49:43;;;;;;;4.05;2.70;;;;;;;;;;10234364;23;20017;-83
2022/08/01 09:53:49;;;;;;;5.40;2.75;;;;;;;;;;10233932;23;20108;-85
2022/08/01 09:58:00;;;;;;;3.40;2.67;;;;;;;;;;10232487;23;20029;-83
2022/08/01 10:02:05;;;;;;;6.47;2.60;;;;;;;;;;10235770;23;20075;-89
2022/08/01 10:06:22;;;;;;;4.10;2.40;;;;;;;;;;10234801;23;20017;-87
2022/08/01 10:10:27;;;;;;;4.32;2.58;;;;;;;;;;10233346;23;20360;-89
2022/08/01 10:14:35;;;;;;;4.20;2.58;;;;;;;;;;10250140;23;20020;-87
2022/08/01 10:18:43;;;;;;;6.15;3.15;;;;;;;;;;10232977;23;20488;-87
2022/08/01 10:22:53;;;;;;;10.63;3.50;;;;;;;;;;10234097;23;20017;-82
2022/08/01 10:27:02;;;;;;;6.07;2.58;;;;;;;;;;10233153;23;20032;-89
2022/08/01 10:31:08;;;;;;;4.22;2.35;;;;;;;;;;10234267;23;20413;-89
2022/08/01 10:35:16;;;;;;;5.88;2.30;;;;;;;;;;10231888;23;20013;-80
2022/08/01 10:39:24;;;;;;;4.25;2.70;;;;;;;;;;10232507;23;20021;-83
2022/08/01 10:43:29;;;;;;;4.53;2.45;;;;;;;;;;10233097;23;20032;-91
2022/08/01 10:47:44;;;;;;;4.47;2.42;;;;;;;;;;10231880;23;20017;-83
2022/08/01 10:51:47;;;;;;;2.97;2.30;;;;;;;;;;10232323;23;20017;-83
2022/08/01 10:56:00;;;;;;;3.75;2.13;;;;;;;;;;10233971;23;20025;-90
2022/08/01 11:00:04;;;;;;;4.80;2.22;;;;;;;;;;10252651;23;20024;-87
2022/08/01 11:04:11;;;;;;;4.28;2.28;;;;;;;;;;10234549;23;20021;-82
2022/08/01 11:08:25;;;;;;;3.90;2.30;;;;;;;;;;10234898;23;20040;-82
2022/08/01 11:12:41;;;;;;;5.30;2.50;;;;;;;;;;10235157;23;20466;-82
2022/08/01 11:16:49;;;;;;;3.95;2.00;;;;;;;;;;10234220;23;20021;-81
2022/08/01 11:21:00;;;;;;;4.53;2.45;;;;;;;;;;10250988;23;20525;-82
2022/08/01 11:25:05;;;;;;;4.88;2.20;;;;;;;;;;10234389;23;20021;-82
2022/08/01 11:29:19;;;;;;;3.30;1.95;;;;;;;;;;10234555;23;20025;-82
2022/08/01 11:33:50;;;;;;;3.63;2.20;;;;;;;;;;10234028;23;20424;-83
2022/08/01 11:37:56;;;;;;;4.60;2.20;;;;;;;;;;10234455;23;20025;-82
2022/08/01 11:42:20;;;;;;;8.15;2.95;;;;;;;;;;10250520;23;20027;-82
2022/08/01 11:46:49;;;;;;;5.40;2.50;;;;;;;;;;10250325;23;20028;-81
2022/08/01 11:50:53;;;;;;;3.67;2.33;;;;;;;;;;10250403;23;20025;-82
2022/08/01 11:55:08;;;;;;;5.50;2.20;;;;;;;;;;10233507;23;20031;-81
2022/08/01 11:59:12;;;;;;;2.85;2.10;;;;;;;;;;10234098;23;20047;-82
2022/08/01 12:03:19;;;;;;;4.32;2.20;;;;;;;;;;10198906;23;20016;-83
2022/08/01 12:07:35;;;;;;;4.55;2.13;;;;;;;;;;10231711;23;20017;-83
2022/08/01 12:12:00;;;;;;;3.73;2.20;;;;;;;;;;10232962;23;20021;-82
2022/08/01 12:16:29;;;;;;;3.45;2.08;;;;;;;;;;10231899;23;20260;-83
2022/08/01 12:20:43;;;;;;;7.78;2.25;;;;;;;;;;10248111;23;20038;-84
2022/08/01 12:24:46;;;;;;;4.30;2.00;;;;;;;;;;10246906;23;20021;-82
2022/08/01 12:28:52;;;;;;;5.25;2.30;;;;;;;;;;10233266;23;20342;-83
2022/08/01 12:32:56;;;;;;;3.80;2.40;;;;;;;;;;10252575;23;20092;-82
2022/08/01 12:37:01;;;;;;;4.07;2.15;;;;;;;;;;10237938;23;20020;-81
2022/08/01 12:41:06;;;;;;;5.57;2.35;;;;;;;;;;10238855;23;20017;-81
2022/08/01 12:45:15;;;;;;;10.57;2.70;;;;;;;;;;10237730;23;20553;-82
2022/08/01 12:49:18;;;;;;;5.15;2.55;;;;;;;;;;10255437;23;20024;-82
2022/08/01 12:53:22;;;;;;;2.55;2.10;;;;;;;;;;10238513;23;20017;-82
2022/08/01 12:57:26;;;;;;;4.35;2.42;;;;;;;;;;10238565;23;20025;-81
2022/08/01 13:01:31;;;;;;;3.47;2.20;;;;;;;;;;10238740;23;20342;-81
2022/08/01 13:05:46;;;;;;;5.30;2.90;;;;;;;;;;10239239;23;20342;-81
2022/08/01 13:09:51;;;;;;;10.18;3.45;;;;;;;;;;10238692;23;20035;-82
2022/08/01 13:13:56;;;;;;;5.10;2.80;;;;;;;;;;10238732;23;20017;-82
2022/08/01 13:18:03;;;;;;;4.32;2.95;;;;;;;;;;10239131;23;20017;-82
2022/08/01 13:22:07;;;;;;;3.95;2.50;;;;;;;;;;10238461;23;20036;-82
2022/08/01 13:26:11;;;;;;;5.15;3.25;;;;;;;;;;10238559;23;20091;-82
2022/08/01 13:30:18;;;;;;;8.00;3.47;;;;;;;;;;10238420;23;20063;-91
2022/08/01 13:34:32;;;;;;;3.60;2.90;;;;;;;;;;10237440;23;20446;-82
2022/08/01 13:43:12;;;;;;;6.68;3.67;;;;;;;;;;10238411;23;20490;-83
2022/08/01 13:47:20;;;;;;;7.38;3.75;;;;;;;;;;10254459;23;20017;-83
2022/08/01 13:51:27;;;;;;;6.70;3.92;;;;;;;;;;10253811;23;20021;-82
2022/08/01 13:55:35;;;;;;;6.93;3.10;;;;;;;;;;10241861;23;20028;-82
2022/08/01 13:59:40;;;;;;;3.92;3.25;;;;;;;;;;10234741;23;20024;-83
2022/08/01 14:04:10;;;;;;;5.45;3.45;;;;;;;;;;10236662;23;20339;-83
2022/08/01 14:08:20;;;;;;;5.65;3.05;;;;;;;;;;10210299;23;20033;-83
2022/08/01 14:12:23;;;;;;;7.93;3.78;;;;;;;;;;10139648;23;20025;-82
2022/08/01 14:16:27;;;;;;;4.25;2.80;;;;;;;;;;10140095;23;20348;-82
2022/08/01 14:20:34;;;;;;;4.15;3.03;;;;;;;;;;10110239;23;20088;-83
2022/08/01 14:24:56;;;;;;;4.47;2.85;;;;;;;;;;10154897;23;20025;-82
2022/08/01 14:29:05;;;;;;;6.28;2.95;;;;;;;;;;10135621;23;20042;-82
2022/08/01 14:33:40;;;;;;;6.63;3.90;;;;;;;;;;10139923;23;20518;-83
2022/08/01 14:37:49;;;;;;;6.32;3.75;;;;;;;;;;10142363;23;20097;-81
2022/08/01 14:42:01;;;;;;;4.05;3.22;;;;;;;;;;10142688;23;20101;-81
2022/08/01 14:46:09;;;;;;;4.90;3.58;;;;;;;;;;10139959;23;20021;-85
2022/08/01 14:50:21;;;;;;;9.40;3.40;;;;;;;;;;10156826;23;20235;-81
2022/08/01 14:54:26;;;;;;;4.50;3.03;;;;;;;;;;10140493;23;20037;-82
2022/08/01 14:58:40;;;;;;;4.43;3.03;;;;;;;;;;10140006;23;20591;-82
2022/08/01 15:02:57;;;;;;;5.10;2.97;;;;;;;;;;10140227;23;20030;-82
2022/08/01 15:07:12;;;;;;;5.75;2.97;;;;;;;;;;10156486;23;20021;-82
2022/08/01 15:11:18;;;;;;;10.63;3.30;;;;;;;;;;10139070;23;20022;-82
2022/08/01 15:15:24;;;;;;;5.10;3.67;;;;;;;;;;10152535;23;20022;-82
2022/08/01 15:19:29;;;;;;;3.80;3.00;;;;;;;;;;10152305;23;20025;-82
2022/08/01 15:23:33;;;;;;;6.85;3.30;;;;;;;;;;10135857;23;20025;-83
2022/08/01 15:27:46;;;;;;;6.15;3.67;;;;;;;;;;10135862;23;20046;-81
2022/08/01 15:31:58;;;;;;;7.25;3.47;;;;;;;;;;10151981;23;20113;-81
2022/08/01 15:36:03;;;;;;;3.97;3.20;;;;;;;;;;10136569;23;20022;-82
2022/08/01 15:40:10;;;;;;;5.97;3.15;;;;;;;;;;10135238;23;20481;-82
2022/08/01 15:44:17;;;;;;;5.10;3.60;;;;;;;;;;10133986;23;20140;-81
2022/08/01 15:48:25;;;;;;;6.25;3.92;;;;;;;;;;10151358;23;20062;-82
2022/08/01 15:52:28;;;;;;;6.80;3.72;;;;;;;;;;10151285;23;20018;-82
2022/08/01 15:56:32;;;;;;;5.28;3.65;;;;;;;;;;10135835;23;20025;-81
2022/08/01 16:00:35;;;;;;;4.50;3.20;;;;;;;;;;10135405;23;20092;-81
2022/08/01 16:04:40;;;;;;;4.18;3.40;;;;;;;;;;10135059;23;20466;-81
2022/08/01 16:08:44;;;;;;;8.20;4.03;;;;;;;;;;10133998;23;20032;-79
2022/08/01 16:12:47;;;;;;;6.20;3.88;;;;;;;;;;10132378;23;20024;-80
2022/08/01 16:16:50;;;;;;;5.20;4.07;;;;;;;;;;10135582;23;20041;-80
2022/08/01 16:20:56;;;;;;;5.68;4.10;;;;;;;;;;10133450;23;20026;-80
2022/08/01 16:24:59;;;;;;;5.35;3.67;;;;;;;;;;10133211;23;20328;-81
2022/08/01 16:29:06;;;;;;;5.65;3.88;;;;;;;;;;10133334;23;20022;-81
2022/08/01 16:33:11;;;;;;;5.20;4.00;;;;;;;;;;10110542;23;20049;-84
2022/08/01 16:37:19;;;;;;;6.15;4.45;;;;;;;;;;10156979;23;20022;-81
2022/08/01 16:41:24;;;;;;;6.22;4.18;;;;;;;;;;10109297;23;20026;-80
2022/08/01 16:45:29;;;;;;;8.80;4.53;;;;;;;;;;10134006;23;20480;-80
2022/08/01 16:49:34;;;;;;;7.03;4.30;;;;;;;;;;10134432;23;20022;-81
2022/08/01 16:53:39;;;;;;;7.38;4.82;;;;;;;;;;10100386;23;20013;-80
2022/08/01 16:57:43;;;;;;;8.70;5.40;;;;;;;;;;10112221;23;20022;-80
2022/08/01 17:01:47;;;;;;;6.15;4.95;;;;;;;;;;10133672;23;20526;-80
2022/08/01 17:06:10;;;;;;;6.75;5.53;;;;;;;;;;10133342;23;20525;-80
2022/08/01 17:10:24;;;;;;;7.53;5.50;;;;;;;;;;10110613;23;20026;-80
2022/08/01 17:14:56;;;;;;;7.45;4.90;;;;;;;;;;10133583;23;20018;-80
2022/08/01 17:19:26;;;;;;;4.80;4.00;;;;;;;;;;10124394;23;20026;-81
2022/08/01 17:23:33;;;;;;;5.88;4.55;;;;;;;;;;10143262;23;20021;-81
2022/08/01 17:27:38;;;;;;;6.88;4.60;;;;;;;;;;10132123;23;20038;-80
2022/08/01 17:31:41;;;;;;;6.32;4.22;;;;;;;;;;10133654;23;20559;-81
2022/08/01 17:35:44;;;;;;;5.97;4.22;;;;;;;;;;10134184;23;20049;-81
2022/08/01 17:39:48;;;;;;;10.23;7.82;;;;;;;;;;10146182;23;20502;-81
2022/08/01 17:43:59;;;;;;;9.00;6.90;;;;;;;;;;10154892;23;20018;-81
2022/08/01 17:48:02;;;;;;;8.60;6.65;;;;;;;;;;10156451;23;20112;-80
2022/08/01 17:52:06;;;;;;;13.43;8.38;;;;;;;;;;10139952;23;20029;-81
2022/08/01 17:56:09;;;;;;;10.07;7.20;;;;;;;;;;10132537;23;20805;-81
2022/08/01 18:00:24;;;;;;;8.40;5.50;;;;;;;;;;10131374;23;20018;-81
2022/08/01 18:04:29;;;;;;;7.63;5.70;;;;;;;;;;10133553;23;20097;-81
2022/08/01 18:08:33;;;;;;;5.93;5.32;;;;;;;;;;10132954;23;20025;-80
2022/08/01 18:12:36;;;;;;;8.38;6.18;;;;;;;;;;10134091;23;20045;-81
2022/08/01 18:16:41;;;;;;;5.53;4.80;;;;;;;;;;10133531;23;20379;-81
2022/08/01 18:20:44;;;;;;;10.00;6.50;;;;;;;;;;10133592;23;20025;-80
2022/08/01 18:24:47;;;;;;;8.82;6.50;;;;;;;;;;10133430;23;20026;-80
2022/08/01 18:28:51;;;;;;;11.93;8.75;;;;;;;;;;10134020;23;20022;-80
2022/08/01 18:32:56;;;;;;;18.38;11.45;;;;;;;;;;10135215;23;20018;-80
2022/08/01 18:37:01;;;;;;;11.77;7.38;;;;;;;;;;10136587;23;20041;-89
2022/08/01 18:41:09;;;;;;;11.30;6.53;;;;;;;;;;10137786;23;20054;-81
2022/08/01 18:45:55;;;;;;;7.13;5.68;;;;;;;;;;10153374;23;20041;-81
2022/08/01 18:50:04;;;;;;;9.77;5.38;;;;;;;;;;10138917;23;20446;-87
2022/08/01 18:54:08;;;;;;;12.02;7.63;;;;;;;;;;10138800;23;20014;-85
2022/08/01 18:58:12;;;;;;;16.60;13.40;;;;;;;;;;10138522;23;20029;-81
2022/08/01 19:02:29;;;;;;;16.30;12.68;;;;;;;;;;10137504;23;20480;-81
2022/08/01 19:06:59;;;;;;;15.10;9.98;;;;;;;;;;10138711;23;20014;-82
2022/08/01 19:11:15;;;;;;;12.38;9.20;;;;;;;;;;10138981;23;20331;-83
2022/08/01 19:15:29;;;;;;;13.35;9.60;;;;;;;;;;10138851;23;20368;-82
2022/08/01 19:19:41;;;;;;;15.20;11.80;;;;;;;;;;10140540;23;20100;-81
2022/08/01 19:28:55;;;;;;;6.72;5.47;;;;;;;;;;10140837;23;20097;-82
2022/08/01 19:33:09;;;;;;;6.95;5.93;;;;;;;;;;10157631;23;20469;-81
2022/08/01 19:37:17;;;;;;;13.77;9.57;;;;;;;;;;10140058;23;20191;-81
2022/08/01 19:41:47;;;;;;;18.17;12.10;;;;;;;;;;10142202;23;20113;-82
2022/08/01 19:46:07;;;;;;;;;;;;;;;;;;10142679;23;20391;-81
2022/08/01 19:50:13;;;;;;;12.07;9.43;;;;;;;;;;10141166;23;20301;-81
2022/08/01 19:54:21;;;;;;;17.75;12.68;;;;;;;;;;10141864;23;20014;-81
2022/08/01 19:58:33;;;;;;;11.68;7.72;;;;;;;;;;10158222;23;20053;-80
2022/08/01 20:02:57;;;;;;;8.10;5.95;;;;;;;;;;10141255;23;20091;-80
2022/08/01 20:07:02;;;;;;;7.85;5.97;;;;;;;;;;10140485;23;20025;-82
2022/08/01 20:11:10;;;;;;;9.07;6.97;;;;;;;;;;10140544;23;20026;-80
2022/08/01 20:15:17;;;;;;;9.20;6.85;;;;;;;;;;10156748;23;20021;-80
2022/08/01 20:24:18;;;;;;;14.32;10.75;;;;;;;;;;10141398;23;20018;-82
2022/08/01 20:33:20;;;;;;;18.42;10.98;;;;;;;;;;10141778;23;20101;-82
2022/08/01 20:37:25;;;;;;;11.35;8.10;;;;;;;;;;10140523;23;20510;-81
2022/08/01 20:41:30;;;;;;;15.77;9.15;;;;;;;;;;10141657;23;20459;-81
2022/08/01 20:45:34;;;;;;;10.93;8.20;;;;;;;;;;10140977;23;20387;-81
2022/08/01 20:49:42;;;;;;;8.32;6.50;;;;;;;;;;10141676;23;20438;-80
2022/08/01 20:53:51;;;;;;;14.27;9.05;;;;;;;;;;10141108;23;20014;-81
2022/08/01 20:57:56;;;;;;;10.75;8.73;;;;;;;;;;10140604;23;20490;-81
2022/08/01 21:02:07;;;;;;;9.60;7.95;;;;;;;;;;10157135;23;20100;-81
2022/08/01 21:06:18;;;;;;;9.82;7.20;;;;;;;;;;10141413;23;20042;-80
2022/08/01 21:10:29;;;;;;;9.55;7.88;;;;;;;;;;10124524;23;20101;-81
2022/08/01 21:14:45;;;;;;;9.83;6.33;;;;;;;;;;10141205;23;20018;-81
2022/08/01 21:18:56;;;;;;;9.10;7.00;;;;;;;;;;10140788;23;20020;-81
2022/08/01 21:23:10;;;;;;;8.68;6.95;;;;;;;;;;10156858;23;20061;-80
2022/08/01 21:27:16;;;;;;;9.82;6.47;;;;;;;;;;10156854;23;20017;-81
2022/08/01 21:31:20;;;;;;;12.50;8.98;;;;;;;;;;10156887;23;20021;-81
2022/08/01 21:35:26;;;;;;;16.80;8.90;;;;;;;;;;10140434;23;20018;-80
2022/08/01 21:39:30;;;;;;;11.75;8.23;;;;;;;;;;10156282;23;20466;-80
2022/08/01 21:43:36;;;;;;;12.27;8.57;;;;;;;;;;10140110;23;20332;-80
2022/08/01 21:47:46;;;;;;;15.13;9.30;;;;;;;;;;10156628;23;20017;-81
2022/08/01 21:51:57;;;;;;;11.07;8.00;;;;;;;;;;10156632;23;20089;-80
2022/08/01 21:56:07;;;;;;;9.32;7.90;;;;;;;;;;10140248;23;20014;-80
2022/08/01 22:00:14;;;;;;;11.27;8.43;;;;;;;;;;10139547;23;20093;-81
2022/08/01 22:04:21;;;;;;;9.85;7.00;;;;;;;;;;10156183;23;20030;-81
2022/08/01 22:08:29;;;;;;;8.30;7.38;;;;;;;;;;10140135;23;20030;-80
2022/08/01 22:12:35;;;;;;;9.50;7.35;;;;;;;;;;10156419;23;20467;-80
2022/08/01 22:16:39;;;;;;;9.95;7.13;;;;;;;;;;10140593;23;20022;-80
2022/08/01 22:20:43;;;;;;;10.60;7.13;;;;;;;;;;10139965;23;20042;-81
2022/08/01 22:24:46;;;;;;;11.20;7.60;;;;;;;;;;10139847;23;20079;-80
2022/08/01 22:28:52;;;;;;;10.32;8.88;;;;;;;;;;10140041;23;20347;-81
2022/08/01 22:32:55;;;;;;;11.45;8.82;;;;;;;;;;10140465;23;20476;-81
2022/08/01 22:36:57;;;;;;;12.10;9.05;;;;;;;;;;10140304;23;20045;-80
2022/08/01 22:41:03;;;;;;;15.95;9.82;;;;;;;;;;10140590;23;20029;-81
2022/08/01 22:45:11;;;;;;;15.95;10.65;;;;;;;;;;10140524;23;20064;-81
2022/08/01 22:49:26;;;;;;;19.13;11.52;;;;;;;;;;10139924;23;20017;-81
2022/08/01 22:53:39;;;;;;;15.43;9.70;;;;;;;;;;10142418;23;20025;-80
2022/08/01 22:57:47;;;;;;;14.77;9.60;;;;;;;;;;10142925;23;20021;-81
2022/08/01 23:01:52;;;;;;;9.90;7.90;;;;;;;;;;10159161;23;20076;-81
2022/08/01 23:06:02;;;;;;;11.85;7.63;;;;;;;;;;10143395;23;20343;-81
2022/08/01 23:10:07;;;;;;;10.83;9.37;;;;;;;;;;10148620;23;20076;-81
2022/08/01 23:14:11;;;;;;;11.20;8.20;;;;;;;;;;10143231;23;20593;-80
2022/08/01 23:18:16;;;;;;;11.38;7.45;;;;;;;;;;10142650;23;20018;-81
2022/08/01 23:22:21;;;;;;;10.70;8.75;;;;;;;;;;10158727;23;20018;-81
2022/08/01 23:26:24;;;;;;;10.32;7.57;;;;;;;;;;10142515;23;20022;-80
2022/08/01 23:30:28;;;;;;;10.98;7.70;;;;;;;;;;10142962;23;20014;-80
2022/08/01 23:34:32;;;;;;;10.10;8.07;;;;;;;;;;10142368;23;20017;-80
2022/08/01 23:38:35;;;;;;;10.80;8.38;;;;;;;;;;10142362;23;20024;-80
2022/08/01 23:42:38;;;;;;;8.68;6.38;;;;;;;;;;10140153;23;20448;-82
2022/08/01 23:46:41;;;;;;;18.50;11.02;;;;;;;;;;10141066;23;20026;-81
2022/08/01 23:50:44;;;;;;;11.95;8.15;;;;;;;;;;10142151;23;20096;-81
2022/08/01 23:54:47;;;;;;;17.55;9.73;;;;;;;;;;10141416;23;20100;-82
2022/08/01 23:58:50;;;;;;;9.25;7.22;;;;;;;;;;10140309;23;20013;-82
